Map

Track Data

SID SEASON NUMBER BASIN SUBBASIN NAME ISO_TIME NATURE LAT LON WMO_WIND WMO_PRES WMO_AGENCY TRACK_TYPE DIST2LAND LANDFALL IFLAG USA_AGENCY USA_ATCF_ID USA_LAT USA_LON USA_RECORD USA_STATUS USA_WIND USA_PRES USA_SSHS USA_R34_NE USA_R34_SE USA_R34_SW USA_R34_NW USA_R50_NE USA_R50_SE USA_R50_SW USA_R50_NW USA_R64_NE USA_R64_SE USA_R64_SW USA_R64_NW USA_POCI USA_ROCI USA_RMW USA_EYE TOKYO_LAT TOKYO_LON TOKYO_GRADE TOKYO_WIND TOKYO_PRES TOKYO_R50_DIR TOKYO_R50_LONG TOKYO_R50_SHORT TOKYO_R30_DIR TOKYO_R30_LONG TOKYO_R30_SHORT TOKYO_LAND CMA_LAT CMA_LON CMA_CAT CMA_WIND CMA_PRES HKO_LAT HKO_LON HKO_CAT HKO_WIND HKO_PRES NEWDELHI_LAT NEWDELHI_LON NEWDELHI_GRADE NEWDELHI_WIND NEWDELHI_PRES NEWDELHI_CI NEWDELHI_DP NEWDELHI_POCI REUNION_LAT REUNION_LON REUNION_TYPE REUNION_WIND REUNION_PRES REUNION_TNUM REUNION_CI REUNION_RMW REUNION_R34_NE REUNION_R34_SE REUNION_R34_SW REUNION_R34_NW REUNION_R50_NE REUNION_R50_SE REUNION_R50_SW REUNION_R50_NW REUNION_R64_NE REUNION_R64_SE REUNION_R64_SW REUNION_R64_NW BOM_LAT BOM_LON BOM_TYPE BOM_WIND BOM_PRES BOM_TNUM BOM_CI BOM_RMW BOM_R34_NE BOM_R34_SE BOM_R34_SW BOM_R34_NW BOM_R50_NE BOM_R50_SE BOM_R50_SW BOM_R50_NW BOM_R64_NE BOM_R64_SE BOM_R64_SW BOM_R64_NW BOM_ROCI BOM_POCI BOM_EYE BOM_POS_METHOD BOM_PRES_METHOD NADI_LAT NADI_LON NADI_CAT NADI_WIND NADI_PRES WELLINGTON_LAT WELLINGTON_LON WELLINGTON_WIND WELLINGTON_PRES DS824_LAT DS824_LON DS824_STAGE DS824_WIND DS824_PRES TD9636_LAT TD9636_LON TD9636_STAGE TD9636_WIND TD9636_PRES TD9635_LAT TD9635_LON TD9635_WIND TD9635_PRES TD9635_ROCI NEUMANN_LAT NEUMANN_LON NEUMANN_CLASS NEUMANN_WIND NEUMANN_PRES MLC_LAT MLC_LON MLC_CLASS MLC_WIND MLC_PRES USA_GUST BOM_GUST BOM_GUST_PER REUNION_GUST REUNION_GUST_PER USA_SEAHGT USA_SEARAD_NE USA_SEARAD_SE USA_SEARAD_SW USA_SEARAD_NW STORM_SPEED STORM_DIR
1954176N22266 1954 23 NA GM ALICE 1954-06-24 12:00:00 TS 22.2000 -93.7000 50 hurdat_atl main 372 344 O_____________ hurdat_atl AL031954 22.2000 -93.7000 TS 50 0 9 309
1954176N22266 1954 23 NA GM ALICE 1954-06-24 15:00:00 TS 22.4901 -94.0898 main 344 317 P_____________ AL031954 22.4901 -94.0898 TS 52 0 10 309
1954176N22266 1954 23 NA GM ALICE 1954-06-24 18:00:00 TS 22.8000 -94.5000 55 hurdat_atl main 317 296 O_____________ hurdat_atl AL031954 22.8000 -94.5000 TS 55 0 10 310
1954176N22266 1954 23 NA GM ALICE 1954-06-24 21:00:00 TS 23.1424 -94.9426 main 296 244 P_____________ AL031954 23.1424 -94.9426 TS 60 0 11 310
1954176N22266 1954 23 NA GM ALICE 1954-06-25 00:00:00 TS 23.5000 -95.4000 65 hurdat_atl main 244 203 O_____________ hurdat_atl AL031954 23.5000 -95.4000 HU 65 1 11 311
1954176N22266 1954 23 NA GM ALICE 1954-06-25 03:00:00 TS 23.8574 -95.8502 main 193 145 P_____________ AL031954 23.8574 -95.8502 HU 72 1 11 310
1954176N22266 1954 23 NA GM ALICE 1954-06-25 06:00:00 TS 24.2000 -96.3000 80 hurdat_atl main 145 98 O_____________ hurdat_atl AL031954 24.2000 -96.3000 HU 80 1 10 309
1954176N22266 1954 23 NA GM ALICE 1954-06-25 09:00:00 TS 24.5062 -96.7154 main 98 37 P_____________ AL031954 24.5062 -96.7154 HU 87 2 10 306
1954176N22266 1954 23 NA GM ALICE 1954-06-25 12:00:00 TS 24.8000 -97.2000 95 hurdat_atl main 37 0 O_____________ hurdat_atl AL031954 24.8000 -97.2000 HU 95 2 11 302
1954176N22266 1954 23 NA NA ALICE 1954-06-25 14:00:00 TS 25.0000 -97.6000 95 hurdat_atl main 10 10 O_____________ hurdat_atl AL031954 25.0000 -97.6000 L HU 95 2 12 303
1954176N22266 1954 23 NA NA ALICE 1954-06-25 15:00:00 TS 25.1280 -97.7526 main 0 0 P_____________ AL031954 25.1280 -97.7526 HU 88 2 11 323
1954176N22266 1954 23 NA NA ALICE 1954-06-25 18:00:00 TS 25.6000 -98.1000 70 hurdat_atl main 0 0 O_____________ hurdat_atl AL031954 25.6000 -98.1000 HU 70 1 12 323
1954176N22266 1954 23 NA NA ALICE 1954-06-25 21:00:00 TS 26.0767 -98.5436 main 0 0 P_____________ AL031954 26.0767 -98.5436 HU 60 0 13 321
1954176N22266 1954 23 NA NA ALICE 1954-06-26 00:00:00 TS 26.6000 -99.0000 50 hurdat_atl main 0 0 O_____________ hurdat_atl AL031954 26.6000 -99.0000 TS 50 0 14 325
1954176N22266 1954 23 NA NA ALICE 1954-06-26 03:00:00 TS 27.1998 -99.4077 main 0 0 P_____________ AL031954 27.1998 -99.4077 TS 45 0 14 329
1954176N22266 1954 23 NA NA ALICE 1954-06-26 06:00:00 TS 27.8000 -99.8000 40 hurdat_atl main 0 0 O_____________ hurdat_atl AL031954 27.8000 -99.8000 TS 40 0 13 329
1954176N22266 1954 23 NA NA ALICE 1954-06-26 09:00:00 TS 28.3448 -100.193 main 0 0 P_____________ AL031954 28.3448 -100.193 TS 37 0 12 325
1954176N22266 1954 23 NA NA ALICE 1954-06-26 12:00:00 TS 28.8000 -100.600 35 hurdat_atl main 0 0 O_____________ hurdat_atl AL031954 28.8000 -100.600 TS 35 0 11 318
1954176N22266 1954 23 NA NA ALICE 1954-06-26 15:00:00 TS 29.1522 -101.020 main 0 0 P_____________ AL031954 29.1522 -101.020 TS 32 -1 10 307
1954176N22266 1954 23 NA NA ALICE 1954-06-26 18:00:00 TS 29.4000 -101.500 30 hurdat_atl main 0 0 O_____________ hurdat_atl AL031954 29.4000 -101.500 TD 30 -1 10 295
1954176N22266 1954 23 NA NA ALICE 1954-06-26 21:00:00 TS 29.5724 -102.070 main 0 0 P_____________ AL031954 29.5724 -102.070 TD 27 -1 11 286
1954176N22266 1954 23 NA NA ALICE 1954-06-27 00:00:00 TS 29.7000 -102.700 25 hurdat_atl main 0 0 O_____________ hurdat_atl AL031954 29.7000 -102.700 TD 25 -1 11 284
1954176N22266 1954 23 NA NA ALICE 1954-06-27 03:00:00 TS 29.8431 -103.347 main 0 0 P_____________ AL031954 29.8431 -103.347 TD 25 -1 12 285
1954176N22266 1954 23 NA NA ALICE 1954-06-27 06:00:00 TS 30.0000 -104.000 25 hurdat_atl main 0 O_____________ hurdat_atl AL031954 30.0000 -104.000 TD 25 -1 12 286

About IBTrACS Database

This database is a web-friendly format of International Best Track Archive for Climate Stewardship (IBTrACS), a global best track data archive curated by NOAA dating back to 1842.

Updated: 2021-10-19